sensor_id;sensor_type;location;lat;lon;timestamp;P1;durP1;ratioP1;P2;durP2;ratioP2
4563;SDS011;2294;51.818;8.484;2022-11-13T00:01:07;17.43;;;5.73;;
4563;SDS011;2294;51.818;8.484;2022-11-13T00:03:35;6.70;;;5.20;;
4563;SDS011;2294;51.818;8.484;2022-11-13T00:06:02;10.13;;;5.30;;
4563;SDS011;2294;51.818;8.484;2022-11-13T00:08:29;10.03;;;5.50;;
4563;SDS011;2294;51.818;8.484;2022-11-13T00:11:00;10.63;;;5.37;;
4563;SDS011;2294;51.818;8.484;2022-11-13T00:13:28;10.77;;;5.10;;
4563;SDS011;2294;51.818;8.484;2022-11-13T00:15:56;8.40;;;5.90;;
4563;SDS011;2294;51.818;8.484;2022-11-13T00:18:23;7.10;;;5.40;;
4563;SDS011;2294;51.818;8.484;2022-11-13T00:20:50;7.50;;;5.43;;
4563;SDS011;2294;51.818;8.484;2022-11-13T00:23:17;8.70;;;5.73;;
4563;SDS011;2294;51.818;8.484;2022-11-13T00:25:44;7.37;;;4.83;;
4563;SDS011;2294;51.818;8.484;2022-11-13T00:28:12;12.00;;;5.67;;
4563;SDS011;2294;51.818;8.484;2022-11-13T00:30:39;5.97;;;4.57;;
4563;SDS011;2294;51.818;8.484;2022-11-13T00:33:06;5.33;;;4.60;;
4563;SDS011;2294;51.818;8.484;2022-11-13T00:35:33;13.43;;;4.77;;
4563;SDS011;2294;51.818;8.484;2022-11-13T00:38:00;8.80;;;6.00;;
4563;SDS011;2294;51.818;8.484;2022-11-13T00:40:27;7.20;;;5.40;;
4563;SDS011;2294;51.818;8.484;2022-11-13T00:42:54;8.57;;;5.43;;
4563;SDS011;2294;51.818;8.484;2022-11-13T00:45:22;6.97;;;5.23;;
4563;SDS011;2294;51.818;8.484;2022-11-13T00:47:49;10.50;;;6.27;;
4563;SDS011;2294;51.818;8.484;2022-11-13T00:50:16;10.87;;;6.47;;
4563;SDS011;2294;51.818;8.484;2022-11-13T00:52:43;7.70;;;4.73;;
4563;SDS011;2294;51.818;8.484;2022-11-13T00:55:10;7.27;;;5.20;;
4563;SDS011;2294;51.818;8.484;2022-11-13T00:57:36;7.60;;;5.00;;
4563;SDS011;2294;51.818;8.484;2022-11-13T01:00:04;6.43;;;5.30;;
4563;SDS011;2294;51.818;8.484;2022-11-13T01:02:33;7.73;;;4.47;;
4563;SDS011;2294;51.818;8.484;2022-11-13T01:05:00;9.10;;;5.10;;
4563;SDS011;2294;51.818;8.484;2022-11-13T01:07:27;8.07;;;5.37;;
4563;SDS011;2294;51.818;8.484;2022-11-13T01:09:54;8.97;;;5.10;;
4563;SDS011;2294;51.818;8.484;2022-11-13T01:12:21;9.00;;;5.53;;
4563;SDS011;2294;51.818;8.484;2022-11-13T01:14:48;9.87;;;5.07;;
4563;SDS011;2294;51.818;8.484;2022-11-13T01:17:15;6.00;;;5.17;;
4563;SDS011;2294;51.818;8.484;2022-11-13T01:19:43;5.90;;;4.70;;
4563;SDS011;2294;51.818;8.484;2022-11-13T01:22:10;7.97;;;5.13;;
4563;SDS011;2294;51.818;8.484;2022-11-13T01:24:37;10.83;;;4.73;;
4563;SDS011;2294;51.818;8.484;2022-11-13T01:27:04;7.03;;;4.90;;
4563;SDS011;2294;51.818;8.484;2022-11-13T01:29:32;10.80;;;5.60;;
4563;SDS011;2294;51.818;8.484;2022-11-13T01:31:59;9.57;;;4.20;;
4563;SDS011;2294;51.818;8.484;2022-11-13T01:34:25;5.00;;;4.47;;
4563;SDS011;2294;51.818;8.484;2022-11-13T01:36:54;6.40;;;4.93;;
4563;SDS011;2294;51.818;8.484;2022-11-13T01:39:21;4.63;;;4.00;;
4563;SDS011;2294;51.818;8.484;2022-11-13T01:41:47;4.67;;;4.13;;
4563;SDS011;2294;51.818;8.484;2022-11-13T01:44:15;8.90;;;4.90;;
4563;SDS011;2294;51.818;8.484;2022-11-13T01:46:44;8.03;;;4.97;;
4563;SDS011;2294;51.818;8.484;2022-11-13T01:49:19;4.63;;;4.10;;
4563;SDS011;2294;51.818;8.484;2022-11-13T01:51:55;6.13;;;4.80;;
4563;SDS011;2294;51.818;8.484;2022-11-13T01:54:25;5.57;;;4.10;;
4563;SDS011;2294;51.818;8.484;2022-11-13T01:56:54;5.40;;;3.90;;
4563;SDS011;2294;51.818;8.484;2022-11-13T01:59:23;5.60;;;4.30;;
4563;SDS011;2294;51.818;8.484;2022-11-13T02:01:54;6.63;;;4.20;;
4563;SDS011;2294;51.818;8.484;2022-11-13T02:04:21;5.20;;;3.53;;
4563;SDS011;2294;51.818;8.484;2022-11-13T02:06:50;5.87;;;4.27;;
4563;SDS011;2294;51.818;8.484;2022-11-13T02:09:21;6.87;;;4.47;;
4563;SDS011;2294;51.818;8.484;2022-11-13T02:11:52;6.27;;;4.50;;
4563;SDS011;2294;51.818;8.484;2022-11-13T02:14:20;7.30;;;4.57;;
4563;SDS011;2294;51.818;8.484;2022-11-13T02:16:48;4.53;;;4.10;;
4563;SDS011;2294;51.818;8.484;2022-11-13T02:19:29;5.57;;;4.30;;
4563;SDS011;2294;51.818;8.484;2022-11-13T02:21:58;5.20;;;3.67;;
4563;SDS011;2294;51.818;8.484;2022-11-13T02:24:35;4.77;;;3.70;;
4563;SDS011;2294;51.818;8.484;2022-11-13T02:27:06;8.73;;;3.90;;
4563;SDS011;2294;51.818;8.484;2022-11-13T02:29:36;5.07;;;3.73;;
4563;SDS011;2294;51.818;8.484;2022-11-13T02:32:03;6.33;;;3.83;;
4563;SDS011;2294;51.818;8.484;2022-11-13T02:34:30;4.80;;;4.00;;
4563;SDS011;2294;51.818;8.484;2022-11-13T02:36:57;5.70;;;3.90;;
4563;SDS011;2294;51.818;8.484;2022-11-13T02:39:24;6.30;;;3.60;;
4563;SDS011;2294;51.818;8.484;2022-11-13T02:41:52;7.93;;;3.33;;
4563;SDS011;2294;51.818;8.484;2022-11-13T02:44:19;4.00;;;3.60;;
4563;SDS011;2294;51.818;8.484;2022-11-13T02:46:46;4.07;;;2.90;;
4563;SDS011;2294;51.818;8.484;2022-11-13T02:49:13;3.80;;;3.00;;
4563;SDS011;2294;51.818;8.484;2022-11-13T02:51:40;4.97;;;2.80;;
4563;SDS011;2294;51.818;8.484;2022-11-13T02:54:07;3.57;;;3.27;;
4563;SDS011;2294;51.818;8.484;2022-11-13T02:56:34;6.93;;;3.53;;
4563;SDS011;2294;51.818;8.484;2022-11-13T02:59:02;4.37;;;3.10;;
4563;SDS011;2294;51.818;8.484;2022-11-13T03:01:29;4.00;;;3.33;;
4563;SDS011;2294;51.818;8.484;2022-11-13T03:03:56;4.10;;;3.23;;
4563;SDS011;2294;51.818;8.484;2022-11-13T03:06:23;4.27;;;3.23;;
4563;SDS011;2294;51.818;8.484;2022-11-13T03:08:50;3.77;;;3.43;;
4563;SDS011;2294;51.818;8.484;2022-11-13T03:11:17;4.07;;;3.33;;
4563;SDS011;2294;51.818;8.484;2022-11-13T03:13:43;4.80;;;3.37;;
4563;SDS011;2294;51.818;8.484;2022-11-13T03:16:13;3.37;;;2.97;;
4563;SDS011;2294;51.818;8.484;2022-11-13T03:18:41;4.70;;;3.30;;
4563;SDS011;2294;51.818;8.484;2022-11-13T03:21:09;3.30;;;2.80;;
4563;SDS011;2294;51.818;8.484;2022-11-13T03:23:38;4.37;;;3.03;;
4563;SDS011;2294;51.818;8.484;2022-11-13T03:26:06;5.63;;;3.70;;
4563;SDS011;2294;51.818;8.484;2022-11-13T03:28:34;7.43;;;3.57;;
4563;SDS011;2294;51.818;8.484;2022-11-13T03:31:02;4.60;;;3.17;;
4563;SDS011;2294;51.818;8.484;2022-11-13T03:33:31;3.87;;;3.47;;
4563;SDS011;2294;51.818;8.484;2022-11-13T03:35:58;4.63;;;3.33;;
4563;SDS011;2294;51.818;8.484;2022-11-13T03:38:25;11.97;;;3.63;;
4563;SDS011;2294;51.818;8.484;2022-11-13T03:40:52;4.20;;;3.10;;
4563;SDS011;2294;51.818;8.484;2022-11-13T03:43:19;3.87;;;3.40;;
4563;SDS011;2294;51.818;8.484;2022-11-13T03:45:46;3.83;;;3.53;;
4563;SDS011;2294;51.818;8.484;2022-11-13T03:48:14;5.50;;;3.80;;
4563;SDS011;2294;51.818;8.484;2022-11-13T03:50:44;5.33;;;3.60;;
4563;SDS011;2294;51.818;8.484;2022-11-13T03:53:12;5.10;;;3.60;;
4563;SDS011;2294;51.818;8.484;2022-11-13T03:55:39;7.53;;;3.50;;
4563;SDS011;2294;51.818;8.484;2022-11-13T03:58:07;4.67;;;3.30;;
4563;SDS011;2294;51.818;8.484;2022-11-13T04:00:34;3.20;;;2.77;;
4563;SDS011;2294;51.818;8.484;2022-11-13T04:03:01;3.50;;;3.10;;
4563;SDS011;2294;51.818;8.484;2022-11-13T04:05:29;3.90;;;2.83;;
4563;SDS011;2294;51.818;8.484;2022-11-13T04:07:57;5.87;;;3.23;;
4563;SDS011;2294;51.818;8.484;2022-11-13T04:10:24;6.03;;;3.17;;
4563;SDS011;2294;51.818;8.484;2022-11-13T04:12:52;13.43;;;3.30;;
4563;SDS011;2294;51.818;8.484;2022-11-13T04:15:19;5.50;;;3.23;;
4563;SDS011;2294;51.818;8.484;2022-11-13T04:17:46;6.20;;;2.93;;
4563;SDS011;2294;51.818;8.484;2022-11-13T04:20:13;3.37;;;2.97;;
4563;SDS011;2294;51.818;8.484;2022-11-13T04:22:41;3.57;;;2.50;;
4563;SDS011;2294;51.818;8.484;2022-11-13T04:25:09;6.03;;;3.40;;
4563;SDS011;2294;51.818;8.484;2022-11-13T04:27:36;3.60;;;3.17;;
4563;SDS011;2294;51.818;8.484;2022-11-13T04:30:03;5.97;;;3.47;;
4563;SDS011;2294;51.818;8.484;2022-11-13T04:32:31;3.20;;;2.90;;
4563;SDS011;2294;51.818;8.484;2022-11-13T04:34:58;4.63;;;3.37;;
4563;SDS011;2294;51.818;8.484;2022-11-13T04:37:25;9.33;;;3.03;;
4563;SDS011;2294;51.818;8.484;2022-11-13T04:39:52;3.20;;;2.67;;
4563;SDS011;2294;51.818;8.484;2022-11-13T04:42:20;5.40;;;3.43;;
4563;SDS011;2294;51.818;8.484;2022-11-13T04:45:19;3.63;;;3.20;;
4563;SDS011;2294;51.818;8.484;2022-11-13T04:47:48;5.33;;;3.10;;
4563;SDS011;2294;51.818;8.484;2022-11-13T04:50:16;3.80;;;3.40;;
4563;SDS011;2294;51.818;8.484;2022-11-13T04:52:43;4.50;;;2.70;;
4563;SDS011;2294;51.818;8.484;2022-11-13T04:55:10;3.77;;;3.47;;
4563;SDS011;2294;51.818;8.484;2022-11-13T04:57:39;4.10;;;3.43;;
4563;SDS011;2294;51.818;8.484;2022-11-13T05:00:07;3.67;;;2.90;;
4563;SDS011;2294;51.818;8.484;2022-11-13T05:02:35;4.57;;;2.90;;
4563;SDS011;2294;51.818;8.484;2022-11-13T05:05:02;3.17;;;2.77;;
4563;SDS011;2294;51.818;8.484;2022-11-13T05:07:29;3.33;;;3.03;;
4563;SDS011;2294;51.818;8.484;2022-11-13T05:09:56;3.07;;;2.70;;
4563;SDS011;2294;51.818;8.484;2022-11-13T05:12:23;3.40;;;2.80;;
4563;SDS011;2294;51.818;8.484;2022-11-13T05:14:51;4.27;;;3.30;;
4563;SDS011;2294;51.818;8.484;2022-11-13T05:17:18;3.53;;;2.93;;
4563;SDS011;2294;51.818;8.484;2022-11-13T05:19:45;3.90;;;3.50;;
4563;SDS011;2294;51.818;8.484;2022-11-13T05:22:12;4.30;;;3.33;;
4563;SDS011;2294;51.818;8.484;2022-11-13T05:24:38;3.87;;;3.10;;
4563;SDS011;2294;51.818;8.484;2022-11-13T05:27:05;3.90;;;2.90;;
4563;SDS011;2294;51.818;8.484;2022-11-13T05:29:32;3.00;;;2.60;;
4563;SDS011;2294;51.818;8.484;2022-11-13T05:32:00;5.87;;;3.33;;
4563;SDS011;2294;51.818;8.484;2022-11-13T05:34:27;4.13;;;3.47;;
4563;SDS011;2294;51.818;8.484;2022-11-13T05:36:54;5.10;;;3.93;;
4563;SDS011;2294;51.818;8.484;2022-11-13T05:39:21;2.90;;;2.70;;
4563;SDS011;2294;51.818;8.484;2022-11-13T05:41:48;4.90;;;2.87;;
4563;SDS011;2294;51.818;8.484;2022-11-13T05:44:15;4.27;;;3.17;;
4563;SDS011;2294;51.818;8.484;2022-11-13T05:46:41;3.57;;;2.73;;
4563;SDS011;2294;51.818;8.484;2022-11-13T05:49:10;3.37;;;3.07;;
4563;SDS011;2294;51.818;8.484;2022-11-13T05:51:36;3.63;;;3.20;;
4563;SDS011;2294;51.818;8.484;2022-11-13T05:54:04;3.10;;;2.70;;
4563;SDS011;2294;51.818;8.484;2022-11-13T05:56:31;4.80;;;3.23;;
4563;SDS011;2294;51.818;8.484;2022-11-13T05:59:00;6.13;;;2.70;;
4563;SDS011;2294;51.818;8.484;2022-11-13T06:01:28;3.47;;;2.50;;
4563;SDS011;2294;51.818;8.484;2022-11-13T06:03:57;2.60;;;2.40;;
4563;SDS011;2294;51.818;8.484;2022-11-13T06:06:26;5.40;;;2.70;;
4563;SDS011;2294;51.818;8.484;2022-11-13T06:08:54;3.23;;;2.40;;
4563;SDS011;2294;51.818;8.484;2022-11-13T06:11:23;5.00;;;3.03;;
4563;SDS011;2294;51.818;8.484;2022-11-13T06:13:51;4.63;;;3.20;;
4563;SDS011;2294;51.818;8.484;2022-11-13T06:16:20;3.60;;;3.07;;
4563;SDS011;2294;51.818;8.484;2022-11-13T06:18:48;3.97;;;2.97;;
4563;SDS011;2294;51.818;8.484;2022-11-13T06:21:16;3.13;;;2.80;;
4563;SDS011;2294;51.818;8.484;2022-11-13T06:23:46;4.33;;;2.87;;
4563;SDS011;2294;51.818;8.484;2022-11-13T06:26:14;4.07;;;2.87;;
4563;SDS011;2294;51.818;8.484;2022-11-13T06:28:42;6.30;;;2.63;;
4563;SDS011;2294;51.818;8.484;2022-11-13T06:31:11;2.97;;;2.77;;
4563;SDS011;2294;51.818;8.484;2022-11-13T06:33:40;3.30;;;2.60;;
4563;SDS011;2294;51.818;8.484;2022-11-13T06:36:09;5.93;;;2.93;;
4563;SDS011;2294;51.818;8.484;2022-11-13T06:38:37;5.60;;;2.23;;
4563;SDS011;2294;51.818;8.484;2022-11-13T06:41:07;2.90;;;2.50;;
4563;SDS011;2294;51.818;8.484;2022-11-13T06:43:34;3.63;;;2.60;;
4563;SDS011;2294;51.818;8.484;2022-11-13T06:46:02;3.10;;;2.67;;
4563;SDS011;2294;51.818;8.484;2022-11-13T06:48:30;3.97;;;2.70;;
4563;SDS011;2294;51.818;8.484;2022-11-13T06:50:59;3.50;;;2.53;;
4563;SDS011;2294;51.818;8.484;2022-11-13T06:53:27;2.80;;;2.43;;
4563;SDS011;2294;51.818;8.484;2022-11-13T06:55:54;4.13;;;2.57;;
4563;SDS011;2294;51.818;8.484;2022-11-13T06:58:23;3.23;;;2.30;;
4563;SDS011;2294;51.818;8.484;2022-11-13T07:00:50;3.57;;;2.80;;
4563;SDS011;2294;51.818;8.484;2022-11-13T07:03:17;3.13;;;2.00;;
4563;SDS011;2294;51.818;8.484;2022-11-13T07:05:45;7.97;;;2.87;;
4563;SDS011;2294;51.818;8.484;2022-11-13T07:08:12;3.27;;;2.90;;
4563;SDS011;2294;51.818;8.484;2022-11-13T07:10:40;3.20;;;2.37;;
4563;SDS011;2294;51.818;8.484;2022-11-13T07:13:07;3.43;;;2.70;;
4563;SDS011;2294;51.818;8.484;2022-11-13T07:15:37;2.20;;;2.00;;
4563;SDS011;2294;51.818;8.484;2022-11-13T07:18:05;3.73;;;2.70;;
4563;SDS011;2294;51.818;8.484;2022-11-13T07:20:32;4.20;;;3.00;;
4563;SDS011;2294;51.818;8.484;2022-11-13T07:23:00;5.90;;;3.10;;
4563;SDS011;2294;51.818;8.484;2022-11-13T07:25:29;6.23;;;3.00;;
4563;SDS011;2294;51.818;8.484;2022-11-13T07:27:56;3.77;;;2.60;;
4563;SDS011;2294;51.818;8.484;2022-11-13T07:30:23;4.73;;;2.70;;
4563;SDS011;2294;51.818;8.484;2022-11-13T07:32:51;4.70;;;3.10;;
4563;SDS011;2294;51.818;8.484;2022-11-13T07:35:18;3.87;;;3.13;;
4563;SDS011;2294;51.818;8.484;2022-11-13T07:37:45;10.77;;;3.33;;
4563;SDS011;2294;51.818;8.484;2022-11-13T07:40:12;4.03;;;3.20;;
4563;SDS011;2294;51.818;8.484;2022-11-13T07:42:39;3.33;;;3.03;;
4563;SDS011;2294;51.818;8.484;2022-11-13T07:45:06;7.60;;;3.10;;
4563;SDS011;2294;51.818;8.484;2022-11-13T07:47:33;3.43;;;3.13;;
4563;SDS011;2294;51.818;8.484;2022-11-13T07:50:02;4.20;;;3.40;;
4563;SDS011;2294;51.818;8.484;2022-11-13T07:52:29;4.50;;;3.23;;
4563;SDS011;2294;51.818;8.484;2022-11-13T07:54:56;3.27;;;2.70;;
4563;SDS011;2294;51.818;8.484;2022-11-13T07:57:23;5.87;;;3.60;;
4563;SDS011;2294;51.818;8.484;2022-11-13T07:59:51;3.83;;;2.83;;
4563;SDS011;2294;51.818;8.484;2022-11-13T08:02:18;5.57;;;3.00;;
4563;SDS011;2294;51.818;8.484;2022-11-13T08:04:45;4.20;;;3.43;;
4563;SDS011;2294;51.818;8.484;2022-11-13T08:07:13;6.73;;;3.90;;
4563;SDS011;2294;51.818;8.484;2022-11-13T08:09:40;4.30;;;3.60;;
4563;SDS011;2294;51.818;8.484;2022-11-13T08:12:07;7.73;;;4.00;;
4563;SDS011;2294;51.818;8.484;2022-11-13T08:14:33;3.80;;;2.50;;
4563;SDS011;2294;51.818;8.484;2022-11-13T08:17:00;4.67;;;3.27;;
4563;SDS011;2294;51.818;8.484;2022-11-13T08:19:27;3.87;;;2.83;;
4563;SDS011;2294;51.818;8.484;2022-11-13T08:21:54;5.67;;;3.03;;
4563;SDS011;2294;51.818;8.484;2022-11-13T08:24:22;3.47;;;3.00;;
4563;SDS011;2294;51.818;8.484;2022-11-13T08:26:49;7.20;;;2.40;;
4563;SDS011;2294;51.818;8.484;2022-11-13T08:29:16;4.40;;;2.80;;
4563;SDS011;2294;51.818;8.484;2022-11-13T08:31:43;3.30;;;2.70;;
4563;SDS011;2294;51.818;8.484;2022-11-13T08:34:10;4.10;;;2.70;;
4563;SDS011;2294;51.818;8.484;2022-11-13T08:36:37;3.53;;;3.23;;
4563;SDS011;2294;51.818;8.484;2022-11-13T08:39:04;9.37;;;3.90;;
4563;SDS011;2294;51.818;8.484;2022-11-13T08:41:32;4.00;;;3.30;;
4563;SDS011;2294;51.818;8.484;2022-11-13T08:43:59;4.93;;;3.40;;
4563;SDS011;2294;51.818;8.484;2022-11-13T08:46:26;4.80;;;3.50;;
4563;SDS011;2294;51.818;8.484;2022-11-13T08:48:52;8.83;;;4.10;;
4563;SDS011;2294;51.818;8.484;2022-11-13T08:51:19;5.33;;;3.60;;
4563;SDS011;2294;51.818;8.484;2022-11-13T08:53:46;10.37;;;2.93;;
4563;SDS011;2294;51.818;8.484;2022-11-13T08:56:13;5.90;;;3.33;;
4563;SDS011;2294;51.818;8.484;2022-11-13T08:58:41;3.40;;;2.93;;
4563;SDS011;2294;51.818;8.484;2022-11-13T09:01:08;3.83;;;2.47;;
4563;SDS011;2294;51.818;8.484;2022-11-13T09:03:35;4.97;;;3.53;;
4563;SDS011;2294;51.818;8.484;2022-11-13T09:06:03;4.43;;;3.00;;
4563;SDS011;2294;51.818;8.484;2022-11-13T09:08:31;3.77;;;2.40;;
4563;SDS011;2294;51.818;8.484;2022-11-13T09:11:00;2.83;;;2.20;;
4563;SDS011;2294;51.818;8.484;2022-11-13T09:13:29;3.63;;;2.60;;
4563;SDS011;2294;51.818;8.484;2022-11-13T09:15:58;3.43;;;2.30;;
4563;SDS011;2294;51.818;8.484;2022-11-13T09:18:25;2.57;;;2.23;;
4563;SDS011;2294;51.818;8.484;2022-11-13T09:20:51;4.27;;;2.43;;
4563;SDS011;2294;51.818;8.484;2022-11-13T09:23:19;2.60;;;2.17;;
4563;SDS011;2294;51.818;8.484;2022-11-13T09:25:46;2.30;;;2.10;;
4563;SDS011;2294;51.818;8.484;2022-11-13T09:28:13;5.03;;;2.97;;
4563;SDS011;2294;51.818;8.484;2022-11-13T09:30:40;4.73;;;2.30;;
4563;SDS011;2294;51.818;8.484;2022-11-13T09:33:09;4.17;;;2.30;;
4563;SDS011;2294;51.818;8.484;2022-11-13T09:35:39;3.27;;;2.23;;
4563;SDS011;2294;51.818;8.484;2022-11-13T09:38:08;10.80;;;2.20;;
4563;SDS011;2294;51.818;8.484;2022-11-13T09:40:37;3.73;;;1.97;;
4563;SDS011;2294;51.818;8.484;2022-11-13T09:43:10;3.00;;;2.33;;
4563;SDS011;2294;51.818;8.484;2022-11-13T09:45:47;2.13;;;1.93;;
4563;SDS011;2294;51.818;8.484;2022-11-13T09:48:19;4.80;;;2.40;;
4563;SDS011;2294;51.818;8.484;2022-11-13T09:50:51;4.00;;;2.27;;
4563;SDS011;2294;51.818;8.484;2022-11-13T09:53:19;5.13;;;2.27;;
4563;SDS011;2294;51.818;8.484;2022-11-13T09:55:47;1.77;;;1.43;;
4563;SDS011;2294;51.818;8.484;2022-11-13T09:58:23;4.33;;;2.20;;
4563;SDS011;2294;51.818;8.484;2022-11-13T10:00:55;2.30;;;1.60;;
4563;SDS011;2294;51.818;8.484;2022-11-13T10:03:30;1.60;;;1.50;;
4563;SDS011;2294;51.818;8.484;2022-11-13T10:06:03;2.30;;;1.87;;
4563;SDS011;2294;51.818;8.484;2022-11-13T10:08:42;3.57;;;2.30;;
4563;SDS011;2294;51.818;8.484;2022-11-13T10:11:15;3.57;;;2.13;;
4563;SDS011;2294;51.818;8.484;2022-11-13T10:13:49;2.97;;;1.90;;
4563;SDS011;2294;51.818;8.484;2022-11-13T10:16:20;2.03;;;1.83;;
4563;SDS011;2294;51.818;8.484;2022-11-13T10:18:58;4.00;;;1.90;;
4563;SDS011;2294;51.818;8.484;2022-11-13T10:21:31;3.43;;;2.37;;
4563;SDS011;2294;51.818;8.484;2022-11-13T10:24:03;2.73;;;1.57;;
4563;SDS011;2294;51.818;8.484;2022-11-13T10:26:39;2.20;;;1.73;;
4563;SDS011;2294;51.818;8.484;2022-11-13T10:29:08;3.80;;;2.60;;
4563;SDS011;2294;51.818;8.484;2022-11-13T10:31:44;1.97;;;1.67;;
4563;SDS011;2294;51.818;8.484;2022-11-13T10:34:14;2.93;;;2.00;;
4563;SDS011;2294;51.818;8.484;2022-11-13T10:36:43;3.57;;;1.63;;
4563;SDS011;2294;51.818;8.484;2022-11-13T10:39:22;2.70;;;1.67;;
4563;SDS011;2294;51.818;8.484;2022-11-13T10:41:50;2.43;;;1.90;;
4563;SDS011;2294;51.818;8.484;2022-11-13T10:44:20;5.50;;;1.60;;
4563;SDS011;2294;51.818;8.484;2022-11-13T10:46:47;1.80;;;1.70;;
4563;SDS011;2294;51.818;8.484;2022-11-13T10:49:18;2.40;;;1.80;;
4563;SDS011;2294;51.818;8.484;2022-11-13T10:51:52;1.80;;;1.53;;
4563;SDS011;2294;51.818;8.484;2022-11-13T10:54:21;6.80;;;1.77;;
4563;SDS011;2294;51.818;8.484;2022-11-13T10:56:57;3.90;;;2.20;;
4563;SDS011;2294;51.818;8.484;2022-11-13T10:59:25;2.37;;;1.60;;
4563;SDS011;2294;51.818;8.484;2022-11-13T11:02:07;2.37;;;1.80;;
4563;SDS011;2294;51.818;8.484;2022-11-13T11:04:42;2.83;;;2.00;;
4563;SDS011;2294;51.818;8.484;2022-11-13T11:07:11;1.67;;;1.57;;
4563;SDS011;2294;51.818;8.484;2022-11-13T11:09:40;1.63;;;1.53;;
4563;SDS011;2294;51.818;8.484;2022-11-13T11:12:11;3.97;;;1.43;;
4563;SDS011;2294;51.818;8.484;2022-11-13T11:14:54;1.37;;;1.27;;
4563;SDS011;2294;51.818;8.484;2022-11-13T11:17:28;7.70;;;2.00;;
4563;SDS011;2294;51.818;8.484;2022-11-13T11:20:02;3.23;;;1.97;;
4563;SDS011;2294;51.818;8.484;2022-11-13T11:22:33;2.60;;;1.47;;
4563;SDS011;2294;51.818;8.484;2022-11-13T11:25:04;1.47;;;1.30;;
4563;SDS011;2294;51.818;8.484;2022-11-13T11:27:36;1.67;;;1.20;;
4563;SDS011;2294;51.818;8.484;2022-11-13T11:30:12;3.37;;;1.40;;
4563;SDS011;2294;51.818;8.484;2022-11-13T11:32:45;1.77;;;1.37;;
4563;SDS011;2294;51.818;8.484;2022-11-13T11:35:18;1.40;;;1.23;;
4563;SDS011;2294;51.818;8.484;2022-11-13T11:37:49;4.13;;;1.50;;
4563;SDS011;2294;51.818;8.484;2022-11-13T11:40:24;2.83;;;1.77;;
4563;SDS011;2294;51.818;8.484;2022-11-13T11:42:57;2.67;;;1.70;;
4563;SDS011;2294;51.818;8.484;2022-11-13T11:45:33;1.87;;;1.33;;
4563;SDS011;2294;51.818;8.484;2022-11-13T11:48:02;1.37;;;1.20;;
4563;SDS011;2294;51.818;8.484;2022-11-13T11:50:37;3.67;;;1.53;;
4563;SDS011;2294;51.818;8.484;2022-11-13T11:53:11;3.60;;;1.30;;
4563;SDS011;2294;51.818;8.484;2022-11-13T11:55:55;1.50;;;1.13;;
4563;SDS011;2294;51.818;8.484;2022-11-13T11:58:33;1.70;;;1.20;;
4563;SDS011;2294;51.818;8.484;2022-11-13T12:01:16;4.10;;;2.37;;
4563;SDS011;2294;51.818;8.484;2022-11-13T12:03:58;1.87;;;1.40;;
4563;SDS011;2294;51.818;8.484;2022-11-13T12:06:47;2.07;;;1.27;;
4563;SDS011;2294;51.818;8.484;2022-11-13T12:09:29;2.80;;;1.50;;
4563;SDS011;2294;51.818;8.484;2022-11-13T12:12:02;1.90;;;1.30;;
4563;SDS011;2294;51.818;8.484;2022-11-13T12:14:48;2.17;;;1.57;;
4563;SDS011;2294;51.818;8.484;2022-11-13T12:17:29;2.70;;;1.57;;
4563;SDS011;2294;51.818;8.484;2022-11-13T12:20:13;1.90;;;1.23;;
4563;SDS011;2294;51.818;8.484;2022-11-13T12:22:52;1.33;;;1.10;;
4563;SDS011;2294;51.818;8.484;2022-11-13T12:25:27;1.93;;;1.70;;
4563;SDS011;2294;51.818;8.484;2022-11-13T12:28:02;2.53;;;1.60;;
4563;SDS011;2294;51.818;8.484;2022-11-13T12:30:37;2.07;;;1.20;;
4563;SDS011;2294;51.818;8.484;2022-11-13T12:33:19;1.20;;;1.07;;
4563;SDS011;2294;51.818;8.484;2022-11-13T12:35:51;1.40;;;1.20;;
4563;SDS011;2294;51.818;8.484;2022-11-13T12:38:27;3.90;;;1.23;;
4563;SDS011;2294;51.818;8.484;2022-11-13T12:41:04;2.70;;;1.23;;
4563;SDS011;2294;51.818;8.484;2022-11-13T12:43:46;1.50;;;1.00;;
4563;SDS011;2294;51.818;8.484;2022-11-13T12:46:33;2.40;;;1.30;;
4563;SDS011;2294;51.818;8.484;2022-11-13T12:49:02;1.60;;;1.07;;
4563;SDS011;2294;51.818;8.484;2022-11-13T12:51:51;1.53;;;1.20;;
4563;SDS011;2294;51.818;8.484;2022-11-13T12:54:25;3.10;;;1.37;;
4563;SDS011;2294;51.818;8.484;2022-11-13T12:57:03;2.30;;;1.30;;
4563;SDS011;2294;51.818;8.484;2022-11-13T12:59:43;2.60;;;1.57;;
4563;SDS011;2294;51.818;8.484;2022-11-13T13:05:11;3.60;;;1.50;;
4563;SDS011;2294;51.818;8.484;2022-11-13T13:07:51;2.60;;;1.50;;
4563;SDS011;2294;51.818;8.484;2022-11-13T13:10:44;4.60;;;2.37;;
4563;SDS011;2294;51.818;8.484;2022-11-13T13:13:22;2.87;;;2.00;;
4563;SDS011;2294;51.818;8.484;2022-11-13T13:15:56;2.40;;;1.53;;
4563;SDS011;2294;51.818;8.484;2022-11-13T13:18:26;1.80;;;1.43;;
4563;SDS011;2294;51.818;8.484;2022-11-13T13:20:59;2.93;;;1.30;;
4563;SDS011;2294;51.818;8.484;2022-11-13T13:23:30;1.83;;;1.20;;
4563;SDS011;2294;51.818;8.484;2022-11-13T13:26:05;1.67;;;1.20;;
4563;SDS011;2294;51.818;8.484;2022-11-13T13:28:40;1.87;;;1.17;;
4563;SDS011;2294;51.818;8.484;2022-11-13T13:31:18;1.57;;;1.30;;
4563;SDS011;2294;51.818;8.484;2022-11-13T13:33:53;1.20;;;1.10;;
4563;SDS011;2294;51.818;8.484;2022-11-13T13:36:32;1.97;;;1.40;;
4563;SDS011;2294;51.818;8.484;2022-11-13T13:39:07;1.80;;;1.43;;
4563;SDS011;2294;51.818;8.484;2022-11-13T13:41:54;1.60;;;1.40;;
4563;SDS011;2294;51.818;8.484;2022-11-13T13:44:38;1.23;;;1.13;;
4563;SDS011;2294;51.818;8.484;2022-11-13T13:47:17;1.67;;;1.17;;
4563;SDS011;2294;51.818;8.484;2022-11-13T13:49:49;1.90;;;1.00;;
4563;SDS011;2294;51.818;8.484;2022-11-13T13:52:17;2.60;;;0.90;;
4563;SDS011;2294;51.818;8.484;2022-11-13T13:54:50;1.07;;;1.00;;
4563;SDS011;2294;51.818;8.484;2022-11-13T13:57:18;1.07;;;0.80;;
4563;SDS011;2294;51.818;8.484;2022-11-13T13:59:46;1.07;;;0.97;;
4563;SDS011;2294;51.818;8.484;2022-11-13T14:02:13;1.30;;;1.20;;
4563;SDS011;2294;51.818;8.484;2022-11-13T14:04:44;1.60;;;1.13;;
4563;SDS011;2294;51.818;8.484;2022-11-13T14:07:20;1.07;;;0.97;;
4563;SDS011;2294;51.818;8.484;2022-11-13T14:09:48;3.10;;;1.20;;
4563;SDS011;2294;51.818;8.484;2022-11-13T14:12:16;3.37;;;1.00;;
4563;SDS011;2294;51.818;8.484;2022-11-13T14:14:46;1.20;;;1.10;;
4563;SDS011;2294;51.818;8.484;2022-11-13T14:17:20;1.40;;;1.00;;
4563;SDS011;2294;51.818;8.484;2022-11-13T14:19:49;2.87;;;1.00;;
4563;SDS011;2294;51.818;8.484;2022-11-13T14:22:16;0.93;;;0.83;;
4563;SDS011;2294;51.818;8.484;2022-11-13T14:24:45;1.13;;;0.93;;
4563;SDS011;2294;51.818;8.484;2022-11-13T14:27:16;1.10;;;0.80;;
4563;SDS011;2294;51.818;8.484;2022-11-13T14:29:47;1.47;;;1.10;;
4563;SDS011;2294;51.818;8.484;2022-11-13T14:32:17;2.00;;;1.10;;
4563;SDS011;2294;51.818;8.484;2022-11-13T14:34:47;1.97;;;1.10;;
4563;SDS011;2294;51.818;8.484;2022-11-13T14:37:22;1.20;;;1.10;;
4563;SDS011;2294;51.818;8.484;2022-11-13T14:39:50;1.03;;;0.93;;
4563;SDS011;2294;51.818;8.484;2022-11-13T14:42:21;1.03;;;0.90;;
4563;SDS011;2294;51.818;8.484;2022-11-13T14:44:53;1.03;;;1.00;;
4563;SDS011;2294;51.818;8.484;2022-11-13T14:47:37;1.07;;;0.90;;
4563;SDS011;2294;51.818;8.484;2022-11-13T14:50:08;2.77;;;1.30;;
4563;SDS011;2294;51.818;8.484;2022-11-13T14:52:54;1.37;;;1.00;;
4563;SDS011;2294;51.818;8.484;2022-11-13T14:55:26;1.50;;;1.17;;
4563;SDS011;2294;51.818;8.484;2022-11-13T14:57:55;5.57;;;1.00;;
4563;SDS011;2294;51.818;8.484;2022-11-13T15:00:27;1.50;;;1.00;;
4563;SDS011;2294;51.818;8.484;2022-11-13T15:02:55;0.93;;;0.83;;
4563;SDS011;2294;51.818;8.484;2022-11-13T15:05:22;1.10;;;1.00;;
4563;SDS011;2294;51.818;8.484;2022-11-13T15:07:49;1.27;;;1.10;;
4563;SDS011;2294;51.818;8.484;2022-11-13T15:10:18;1.83;;;1.30;;
4563;SDS011;2294;51.818;8.484;2022-11-13T15:12:47;1.47;;;1.10;;
4563;SDS011;2294;51.818;8.484;2022-11-13T15:15:16;1.07;;;0.93;;
4563;SDS011;2294;51.818;8.484;2022-11-13T15:17:45;1.50;;;1.00;;
4563;SDS011;2294;51.818;8.484;2022-11-13T15:20:14;1.90;;;1.27;;
4563;SDS011;2294;51.818;8.484;2022-11-13T15:22:43;1.60;;;1.13;;
4563;SDS011;2294;51.818;8.484;2022-11-13T15:25:13;1.90;;;1.33;;
4563;SDS011;2294;51.818;8.484;2022-11-13T15:27:42;1.20;;;1.00;;
4563;SDS011;2294;51.818;8.484;2022-11-13T15:30:09;2.07;;;1.20;;
4563;SDS011;2294;51.818;8.484;2022-11-13T15:32:38;1.23;;;1.10;;
4563;SDS011;2294;51.818;8.484;2022-11-13T15:35:06;1.47;;;1.30;;